Time;durP1;ratioP1;P1;durP2;ratioP2;P2;SDS_P1;SDS_P2;PMS_P1;PMS_P2;Temp;Humidity;BMP_temperature;BMP_pressure;BME280_temperature;BME280_humidity;BME280_pressure;Samples;Min_cycle;Max_cycle;Signal;HPM_P1;HPM_P2
2021/03/07 00:02:15;;;;;;;8.13;1.60;;;;;;;32.39;28.32;99275.34;5032189;28;20210;-66
2021/03/07 00:04:41;;;;;;;6.82;2.08;;;;;;;31.49;28.56;99262.72;5032093;28;20326;-66
2021/03/07 00:07:08;;;;;;;7.93;1.90;;;;;;;31.17;29.79;99264.16;5032497;28;20208;-67
2021/03/07 00:09:34;;;;;;;6.63;1.88;;;;;;;32.57;27.59;99269.34;5032078;28;20227;-67
2021/03/07 00:12:00;;;;;;;9.45;2.00;;;;;;;31.78;28.44;99268.09;5031887;28;20654;-66
2021/03/07 00:14:26;;;;;;;6.80;1.90;;;;;;;31.25;29.14;99264.00;5032385;28;20224;-67
2021/03/07 00:16:53;;;;;;;9.38;2.20;;;;;;;31.55;28.54;99263.81;5031863;28;20675;-67
2021/03/07 00:19:19;;;;;;;5.88;1.90;;;;;;;32.13;28.02;99268.84;5032207;28;20241;-67
2021/03/07 00:21:45;;;;;;;6.07;1.80;;;;;;;31.33;29.02;99263.03;5031988;28;20596;-68
2021/03/07 00:24:12;;;;;;;6.53;2.20;;;;;;;30.78;29.48;99260.13;5032124;28;20283;-68
2021/03/07 00:26:38;;;;;;;6.78;2.42;;;;;;;32.32;28.13;99267.22;5032206;28;20285;-67
2021/03/07 00:29:05;;;;;;;7.93;1.77;;;;;;;31.38;29.01;99262.41;5031574;28;20196;-67
2021/03/07 00:31:31;;;;;;;3.53;1.67;;;;;;;30.98;29.07;99263.00;5031770;28;20551;-67
2021/03/07 00:33:58;;;;;;;2.80;1.73;;;;;;;32.40;27.96;99263.50;5031836;28;20228;-67
2021/03/07 00:36:24;;;;;;;3.38;1.65;;;;;;;31.54;29.46;99256.72;5031089;28;20228;-66
2021/03/07 00:38:50;;;;;;;5.13;1.98;;;;;;;31.04;29.93;99255.97;5031765;28;20293;-67
2021/03/07 00:41:17;;;;;;;4.18;1.75;;;;;;;31.77;28.50;99256.41;5032259;28;20288;-67
2021/03/07 00:43:43;;;;;;;3.28;1.50;;;;;;;31.75;28.68;99252.25;5031567;28;20204;-66
2021/03/07 00:46:09;;;;;;;5.32;1.65;;;;;;;31.09;30.11;99248.13;5031512;28;20318;-67
2021/03/07 00:48:36;;;;;;;3.85;1.80;;;;;;;30.54;30.89;99255.94;5031202;28;20744;-67
2021/03/07 00:51:02;;;;;;;5.82;1.60;;;;;;;32.02;28.16;99248.59;5031147;28;20281;-67
2021/03/07 00:53:28;;;;;;;5.47;1.73;;;;;;;31.10;30.19;99249.78;5031180;28;20393;-67
2021/03/07 00:55:55;;;;;;;7.65;1.83;;;;;;;30.70;30.74;99238.66;5031326;28;20228;-67
2021/03/07 00:58:22;;;;;;;4.90;1.60;;;;;;;32.27;27.97;99239.94;5030958;28;20674;-69
2021/03/07 01:00:48;;;;;;;4.15;1.63;;;;;;;31.27;29.55;99242.22;5031192;28;20210;-67
2021/03/07 01:03:15;;;;;;;4.32;1.90;;;;;;;30.69;30.50;99226.19;5030913;28;20200;-67
2021/03/07 01:05:41;;;;;;;7.18;1.95;;;;;;;31.89;28.75;99229.63;5031175;28;20242;-67
2021/03/07 01:08:08;;;;;;;4.10;1.52;;;;;;;31.43;28.80;99225.66;5031416;28;20219;-68
2021/03/07 01:10:37;;;;;;;4.82;1.73;;;;;;;30.82;29.84;99226.28;5030830;28;20219;-67
2021/03/07 01:13:06;;;;;;;4.25;1.40;;;;;;;30.62;30.96;99224.25;5030982;28;20671;-67
2021/03/07 01:15:33;;;;;;;9.20;1.75;;;;;;;31.58;29.06;99224.75;5031237;28;20224;-67
2021/03/07 01:18:01;;;;;;;3.13;1.42;;;;;;;30.81;30.13;99216.53;5030437;28;20207;-67
2021/03/07 01:20:27;;;;;;;7.03;1.90;;;;;;;30.47;30.73;99222.69;5031113;28;20625;-68
2021/03/07 01:22:54;;;;;;;3.20;1.45;;;;;;;31.93;28.64;99217.38;5030531;28;20208;-67
2021/03/07 01:25:22;;;;;;;3.63;1.38;;;;;;;30.97;29.89;99212.72;5030846;28;20586;-68
2021/03/07 01:27:48;;;;;;;4.47;1.75;;;;;;;30.54;30.34;99212.78;5030812;28;20204;-68
2021/03/07 01:30:17;;;;;;;3.60;1.67;;;;;;;32.09;28.29;99211.63;5030523;28;20523;-66
2021/03/07 01:32:45;;;;;;;2.35;1.45;;;;;;;31.07;29.50;99204.28;5030888;28;20199;-67
2021/03/07 01:35:12;;;;;;;3.10;1.33;;;;;;;30.62;30.35;99199.97;5030509;28;20227;-66
2021/03/07 01:37:39;;;;;;;3.75;1.55;;;;;;;31.22;29.99;99196.03;5031057;28;20208;-69
2021/03/07 01:40:07;;;;;;;4.22;1.55;;;;;;;31.36;29.08;99198.63;5030496;28;20283;-67
2021/03/07 01:42:34;;;;;;;2.13;1.25;;;;;;;30.74;30.24;99196.75;5031156;28;20314;-68
2021/03/07 01:45:00;;;;;;;3.22;1.50;;;;;;;30.19;30.98;99194.56;5030862;28;20219;-67
2021/03/07 01:47:30;;;;;;;2.88;1.35;;;;;;;31.68;28.55;99182.75;5030575;28;20290;-67
2021/03/07 01:49:58;;;;;;;3.10;1.67;;;;;;;30.18;31.09;99179.44;5030741;28;20208;-67
2021/03/07 01:52:24;;;;;;;4.63;1.77;;;;;;;29.59;32.05;99177.72;5030447;28;20773;-67
2021/03/07 01:54:50;;;;;;;3.03;1.50;;;;;;;31.38;29.31;99181.34;5030315;28;20224;-67
2021/03/07 01:57:19;;;;;;;2.90;1.50;;;;;;;32.13;27.91;99176.88;5030591;28;20218;-67
2021/03/07 01:59:48;;;;;;;3.40;1.60;;;;;;;31.19;29.48;99170.25;5030321;28;20212;-68
2021/03/07 02:02:14;;;;;;;2.88;1.65;;;;;;;30.62;30.47;99159.47;5030594;28;20207;-67
2021/03/07 02:04:40;;;;;;;4.43;1.60;;;;;;;31.62;29.01;99164.63;5030059;28;20224;-67
2021/03/07 02:07:07;;;;;;;2.17;1.33;;;;;;;30.54;30.73;99165.03;5030561;28;20210;-67
2021/03/07 02:09:33;;;;;;;2.90;1.40;;;;;;;30.08;31.03;99149.25;5030189;28;20230;-68
2021/03/07 02:12:01;;;;;;;2.10;1.40;;;;;;;32.41;27.89;99155.03;5030953;28;20547;-68
2021/03/07 02:14:30;;;;;;;3.13;1.50;;;;;;;31.67;29.25;99153.22;5030498;28;20294;-67
2021/03/07 02:16:58;;;;;;;4.28;1.73;;;;;;;30.78;29.84;99144.84;5030084;28;20207;-67
2021/03/07 02:19:29;;;;;;;3.75;1.27;;;;;;;30.30;30.55;99141.16;5030601;28;20232;-66
2021/03/07 02:21:59;;;;;;;4.30;1.95;;;;;;;31.38;29.31;99143.50;5030192;28;20189;-68
2021/03/07 02:24:26;;;;;;;2.85;1.45;;;;;;;30.57;30.38;99134.94;5030029;28;20628;-69
2021/03/07 02:26:52;;;;;;;3.85;1.42;;;;;;;30.24;30.67;99127.44;5030227;28;20632;-69
2021/03/07 02:29:21;;;;;;;2.88;1.40;;;;;;;31.72;28.92;99124.53;5030533;28;20215;-69
2021/03/07 02:31:51;;;;;;;4.05;1.50;;;;;;;30.91;29.68;99137.84;5030847;28;20235;-69
2021/03/07 02:34:22;;;;;;;4.10;1.70;;;;;;;30.35;30.28;99127.91;5030384;28;20322;-68
2021/03/07 02:36:51;;;;;;;3.83;1.52;;;;;;;31.87;28.70;99128.94;5030179;28;20234;-68
2021/03/07 02:39:19;;;;;;;2.75;1.27;;;;;;;31.08;29.53;99120.34;5031431;28;20291;-67
2021/03/07 02:41:47;;;;;;;2.72;1.20;;;;;;;30.49;30.45;99105.41;5030597;28;20216;-67
2021/03/07 02:44:18;;;;;;;2.65;1.30;;;;;;;30.14;30.68;99105.31;5030471;28;20204;-68
2021/03/07 02:46:46;;;;;;;2.80;1.45;;;;;;;29.61;31.82;99100.25;5030224;28;20599;-68
2021/03/07 02:49:16;;;;;;;2.92;1.40;;;;;;;29.36;31.40;99099.75;5030646;28;20342;-68
2021/03/07 02:51:45;;;;;;;3.28;1.52;;;;;;;32.17;28.46;99088.00;5031228;28;20271;-67
2021/03/07 02:54:13;;;;;;;2.92;1.50;;;;;;;31.94;28.80;99093.78;5030831;28;20204;-66
2021/03/07 02:56:40;;;;;;;2.90;1.65;;;;;;;31.25;28.83;99091.09;5030407;28;20215;-67
2021/03/07 02:59:10;;;;;;;2.90;1.38;;;;;;;31.72;29.19;99088.56;5030660;28;20252;-68
2021/03/07 03:01:38;;;;;;;2.05;1.20;;;;;;;31.65;28.26;99088.53;5034425;28;20216;-66
2021/03/07 03:04:06;;;;;;;2.38;1.10;;;;;;;31.02;29.46;99085.19;5034444;28;20698;-67
2021/03/07 03:06:35;;;;;;;2.70;1.45;;;;;;;32.08;28.32;99085.50;5034394;28;20246;-67
2021/03/07 03:09:04;;;;;;;3.35;1.10;;;;;;;31.36;28.82;99087.81;5033824;28;20278;-66
2021/03/07 03:11:34;;;;;;;2.25;1.20;;;;;;;30.70;29.73;99082.09;5033184;28;20228;-67
2021/03/07 03:14:01;;;;;;;1.77;1.30;;;;;;;30.97;29.69;99078.53;5033491;28;20211;-67
2021/03/07 03:16:32;;;;;;;2.05;1.40;;;;;;;31.41;28.25;99079.13;5032964;28;20275;-67
2021/03/07 03:19:00;;;;;;;2.78;1.30;;;;;;;30.74;29.45;99083.34;5033645;28;20249;-69
2021/03/07 03:21:27;;;;;;;4.05;1.35;;;;;;;30.39;30.08;99072.56;5033632;28;20215;-69
2021/03/07 03:23:53;;;;;;;2.65;1.58;;;;;;;31.69;28.15;99080.84;5033295;28;20258;-67
2021/03/07 03:26:22;;;;;;;2.80;1.40;;;;;;;30.81;29.74;99079.69;5033028;28;20326;-67
2021/03/07 03:28:49;;;;;;;3.00;1.20;;;;;;;30.40;29.79;99068.84;5032837;28;20200;-67
2021/03/07 03:31:15;;;;;;;1.65;1.08;;;;;;;31.84;28.78;99075.25;5033067;28;20629;-67
2021/03/07 03:33:42;;;;;;;3.30;1.20;;;;;;;30.95;29.05;99067.09;5033014;28;20207;-66
2021/03/07 03:36:09;;;;;;;2.42;1.33;;;;;;;30.52;29.76;99069.94;5032850;28;20230;-65
2021/03/07 03:38:39;;;;;;;2.40;1.52;;;;;;;31.58;28.94;99074.19;5032974;28;20257;-73
2021/03/07 03:41:08;;;;;;;2.22;1.30;;;;;;;30.52;29.75;99071.81;5032878;28;20191;-67
2021/03/07 03:43:35;;;;;;;2.20;1.42;;;;;;;29.69;30.64;99064.25;5032740;28;20215;-67
2021/03/07 03:46:03;;;;;;;2.97;1.65;;;;;;;29.60;30.99;99068.94;5032534;28;20220;-67
2021/03/07 03:48:34;;;;;;;2.33;1.30;;;;;;;31.67;28.56;99072.94;5032506;28;20214;-66
2021/03/07 03:51:03;;;;;;;2.88;1.30;;;;;;;30.77;29.27;99075.69;5032506;28;20314;-69
2021/03/07 03:53:31;;;;;;;1.40;1.10;;;;;;;30.36;29.82;99065.72;5032827;28;20604;-67
2021/03/07 03:55:59;;;;;;;2.35;1.20;;;;;;;31.61;28.57;99068.38;5032581;28;20228;-66
2021/03/07 03:58:29;;;;;;;2.30;1.20;;;;;;;30.86;29.15;99064.72;5032591;28;20212;-67
2021/03/07 04:00:56;;;;;;;3.40;1.20;;;;;;;30.28;29.88;99057.72;5032539;28;20196;-66
2021/03/07 04:03:24;;;;;;;1.85;1.25;;;;;;;31.66;28.64;99057.78;5032184;28;20700;-67
2021/03/07 04:05:53;;;;;;;2.00;1.30;;;;;;;30.47;29.59;99058.09;5033047;28;20224;-66
2021/03/07 04:08:22;;;;;;;2.88;1.25;;;;;;;29.92;30.48;99050.59;5031976;28;20307;-68
2021/03/07 04:10:50;;;;;;;7.32;1.10;;;;;;;30.69;29.58;99048.03;5031398;28;20220;-66
2021/03/07 04:13:19;;;;;;;4.57;1.40;;;;;;;31.50;28.68;99055.44;5032221;28;20294;-67
2021/03/07 04:15:46;;;;;;;2.08;1.33;;;;;;;30.72;29.32;99053.88;5031774;28;20802;-66
2021/03/07 04:18:14;;;;;;;3.55;1.33;;;;;;;30.44;29.66;99051.22;5032304;28;20200;-65
2021/03/07 04:20:41;;;;;;;3.97;1.38;;;;;;;31.34;28.21;99052.06;5032202;28;20206;-68
2021/03/07 04:23:08;;;;;;;2.20;1.20;;;;;;;30.59;29.58;99049.25;5032651;28;20233;-68
2021/03/07 04:25:35;;;;;;;3.28;1.42;;;;;;;30.03;30.34;99047.38;5032889;28;20224;-67
2021/03/07 04:28:02;;;;;;;1.75;1.10;;;;;;;31.58;28.36;99041.75;5032183;28;20212;-67
2021/03/07 04:30:29;;;;;;;2.45;1.13;;;;;;;30.72;29.36;99047.63;5031826;28;20268;-66
2021/03/07 04:32:56;;;;;;;2.45;1.30;;;;;;;30.19;30.10;99032.75;5031674;28;20211;-66
2021/03/07 04:35:23;;;;;;;4.05;1.65;;;;;;;31.56;28.48;99033.03;5031668;28;20365;-66
2021/03/07 04:37:49;;;;;;;3.67;1.08;;;;;;;30.98;28.76;99047.78;5032098;28;20233;-66
2021/03/07 04:40:15;;;;;;;4.63;1.13;;;;;;;30.39;29.51;99037.47;5031556;28;20283;-67
2021/03/07 04:42:43;;;;;;;4.35;1.30;;;;;;;30.60;29.45;99034.69;5031435;28;20711;-67
2021/03/07 04:45:13;;;;;;;2.60;1.20;;;;;;;31.06;28.52;99041.41;5032203;28;20373;-67
2021/03/07 04:47:40;;;;;;;1.55;1.10;;;;;;;30.45;28.96;99039.41;5032052;28;20204;-66
2021/03/07 04:50:07;;;;;;;4.40;1.17;;;;;;;29.83;30.39;99032.91;5031870;28;20247;-65
2021/03/07 04:52:35;;;;;;;3.28;1.15;;;;;;;31.30;27.96;99039.19;5032152;28;20291;-67
2021/03/07 04:55:01;;;;;;;2.00;1.13;;;;;;;30.48;29.36;99036.31;5031940;28;20314;-67
2021/03/07 04:57:27;;;;;;;2.78;1.30;;;;;;;30.03;30.10;99033.91;5031876;28;20278;-67
2021/03/07 04:59:54;;;;;;;2.17;1.20;;;;;;;31.64;28.53;99030.13;5031911;28;20234;-67
2021/03/07 05:02:20;;;;;;;2.15;1.05;;;;;;;30.69;29.09;99031.84;5032101;28;20207;-67
2021/03/07 05:04:46;;;;;;;2.67;1.38;;;;;;;30.28;29.35;99028.06;5031365;28;20230;-67
2021/03/07 05:07:12;;;;;;;1.83;1.15;;;;;;;30.99;28.94;99033.28;5031339;28;20275;-67
2021/03/07 05:09:38;;;;;;;2.00;1.17;;;;;;;30.99;28.71;99029.72;5031122;28;20230;-67
2021/03/07 05:12:05;;;;;;;1.85;1.27;;;;;;;30.36;29.93;99022.53;5031459;28;20570;-68
2021/03/07 05:14:32;;;;;;;5.47;0.98;;;;;;;30.01;29.68;99027.00;5031758;28;20261;-65
2021/03/07 05:17:00;;;;;;;5.05;1.30;;;;;;;31.10;28.56;99028.31;5031420;28;20278;-66
2021/03/07 05:19:26;;;;;;;2.13;1.20;;;;;;;30.50;29.81;99017.22;5032053;28;20208;-66
2021/03/07 05:21:52;;;;;;;2.95;1.20;;;;;;;30.09;29.76;99021.47;5030981;28;20322;-68
2021/03/07 05:24:18;;;;;;;1.65;1.08;;;;;;;31.35;27.64;99026.72;5031046;28;20219;-68
2021/03/07 05:26:45;;;;;;;2.50;1.10;;;;;;;30.43;29.40;99015.31;5031408;28;20225;-66
2021/03/07 05:29:11;;;;;;;3.03;1.10;;;;;;;29.98;29.62;99009.38;5031840;28;20253;-67
2021/03/07 05:31:38;;;;;;;4.82;1.20;;;;;;;31.24;28.77;99013.78;5031585;28;20223;-67
2021/03/07 05:34:05;;;;;;;2.72;1.05;;;;;;;30.39;29.39;98999.72;5031057;28;20614;-67
2021/03/07 05:36:31;;;;;;;3.38;0.85;;;;;;;29.22;30.76;98999.13;5031118;28;20224;-66
2021/03/07 05:38:57;;;;;;;2.15;1.00;;;;;;;28.69;31.98;98996.59;5030938;28;20695;-72
2021/03/07 05:41:23;;;;;;;1.75;1.10;;;;;;;31.09;28.23;99005.03;5031156;28;20606;-66
2021/03/07 05:43:50;;;;;;;2.70;1.48;;;;;;;31.73;27.58;99001.84;5031037;28;20295;-67
2021/03/07 05:46:17;;;;;;;6.30;1.13;;;;;;;30.95;28.61;99007.69;5030979;28;20227;-67
2021/03/07 05:48:43;;;;;;;2.65;1.08;;;;;;;30.46;28.99;98997.91;5031246;28;20295;-67
2021/03/07 05:51:13;;;;;;;2.90;1.40;;;;;;;31.71;27.16;99003.91;5030854;28;20231;-66
2021/03/07 05:53:40;;;;;;;1.60;1.08;;;;;;;31.57;27.66;98996.00;5031387;28;20212;-67
2021/03/07 05:56:10;;;;;;;2.83;1.20;;;;;;;30.94;28.08;99000.63;5030703;28;20232;-67
2021/03/07 05:58:37;;;;;;;1.35;0.85;;;;;;;30.44;29.01;98991.84;5030706;28;20294;-66
2021/03/07 06:01:03;;;;;;;2.78;1.05;;;;;;;32.06;26.90;98989.34;5030782;28;20781;-67
2021/03/07 06:03:30;;;;;;;2.47;1.10;;;;;;;31.08;28.13;98995.28;5030754;28;20208;-66
2021/03/07 06:05:57;;;;;;;4.85;1.00;;;;;;;30.60;28.68;98983.44;5030647;28;20282;-66
2021/03/07 06:08:24;;;;;;;2.30;1.20;;;;;;;31.90;27.72;98979.78;5030441;28;20210;-65
2021/03/07 06:10:50;;;;;;;1.88;1.10;;;;;;;31.31;27.32;98986.78;5030394;28;20238;-66
2021/03/07 06:13:16;;;;;;;4.38;1.20;;;;;;;30.74;28.57;98980.78;5030553;28;20570;-68
2021/03/07 06:15:44;;;;;;;2.05;1.13;;;;;;;31.11;27.85;98973.25;5030528;28;20369;-67
2021/03/07 06:18:15;;;;;;;1.55;1.00;;;;;;;31.59;27.37;98975.81;5030424;28;20552;-66
2021/03/07 06:20:42;;;;;;;2.10;1.10;;;;;;;30.88;28.04;98976.28;5030698;28;20200;-66
2021/03/07 06:23:09;;;;;;;2.30;1.10;;;;;;;30.42;28.96;98975.03;5030520;28;20294;-66
2021/03/07 06:25:49;;;;;;;1.50;1.20;;;;;;;31.51;27.92;98981.44;5030084;28;20255;-65
2021/03/07 06:28:23;;;;;;;2.05;1.10;;;;;;;30.78;28.37;98979.38;5030296;28;20192;-64
2021/03/07 06:30:49;;;;;;;4.55;0.98;;;;;;;30.33;28.91;98981.63;5030139;28;20262;-66
2021/03/07 06:33:30;;;;;;;2.28;1.23;;;;;;;31.15;27.79;98977.22;5030567;28;20284;-66
2021/03/07 06:36:16;;;;;;;1.83;0.98;;;;;;;30.43;28.94;98974.00;5033297;28;20228;-64
2021/03/07 06:38:46;;;;;;;2.22;1.10;;;;;;;31.73;27.50;98964.00;5034439;28;20307;-66
2021/03/07 06:41:18;;;;;;;1.73;0.98;;;;;;;32.51;26.51;98967.81;5034263;28;20211;-68
2021/03/07 06:43:44;;;;;;;1.92;0.98;;;;;;;33.25;25.28;98975.63;5034213;28;20279;-66
2021/03/07 06:46:27;;;;;;;1.85;1.00;;;;;;;33.35;25.77;98968.66;5034356;28;20238;-66
2021/03/07 06:48:54;;;;;;;2.53;1.00;;;;;;;32.05;26.85;98966.03;5034799;28;20655;-66
2021/03/07 06:51:25;;;;;;;1.83;0.77;;;;;;;31.46;27.81;98962.28;5034651;28;20541;-66
2021/03/07 06:53:52;;;;;;;2.38;1.15;;;;;;;32.56;26.15;98962.59;5033895;28;20231;-63
2021/03/07 06:56:38;;;;;;;3.95;1.33;;;;;;;32.85;24.84;98959.59;5033671;28;20228;-66
2021/03/07 06:59:09;;;;;;;2.28;1.40;;;;;;;31.69;25.69;98968.16;5034005;28;20655;-68
2021/03/07 07:01:39;;;;;;;2.63;1.17;;;;;;;31.11;26.19;98968.69;5034152;28;20210;-66
2021/03/07 07:04:05;;;;;;;1.48;1.33;;;;;;;30.70;26.30;98974.97;5033903;28;20204;-68
2021/03/07 07:06:32;;;;;;;2.85;1.40;;;;;;;30.45;28.32;98961.16;5033610;28;20564;-65
2021/03/07 07:09:00;;;;;;;3.58;1.50;;;;;;;31.21;27.01;98970.16;5033583;28;20230;-67
2021/03/07 07:11:26;;;;;;;6.00;1.30;;;;;;;32.50;26.24;98963.44;5033702;28;20224;-68
2021/03/07 07:13:53;;;;;;;1.83;1.10;;;;;;;32.41;25.41;98962.84;5034383;28;20204;-66
2021/03/07 07:16:19;;;;;;;2.95;1.20;;;;;;;31.39;26.35;98961.44;5034344;28;20366;-66
2021/03/07 07:18:49;;;;;;;3.78;1.25;;;;;;;30.89;27.60;98962.56;5034123;28;20720;-66
2021/03/07 07:21:17;;;;;;;3.78;1.27;;;;;;;32.35;25.16;98954.75;5034101;28;20290;-66
2021/03/07 07:23:43;;;;;;;2.75;1.15;;;;;;;31.97;26.50;98955.44;5034099;28;20349;-66
2021/03/07 07:26:10;;;;;;;4.65;1.10;;;;;;;31.28;27.20;98960.22;5033938;28;20262;-67
2021/03/07 07:28:37;;;;;;;6.10;1.10;;;;;;;30.72;27.32;98964.78;5033389;28;20634;-66
2021/03/07 07:31:10;;;;;;;18.73;1.42;;;;;;;33.05;25.59;98954.88;5033203;28;20326;-64
2021/03/07 07:33:50;;;;;;;12.30;1.30;;;;;;;31.92;26.08;98956.06;5033436;28;20189;-54
2021/03/07 07:36:25;;;;;;;4.35;1.25;;;;;;;31.15;27.98;98953.72;5033534;28;20223;-60
2021/03/07 07:38:55;;;;;;;3.10;1.40;;;;;;;31.01;28.32;98959.31;5033424;28;20187;-69
2021/03/07 07:41:33;;;;;;;4.60;1.35;;;;;;;33.07;25.13;98957.38;5034302;28;20195;-64
2021/03/07 07:44:00;;;;;;;4.20;1.52;;;;;;;32.58;25.65;98965.09;5033564;28;20602;-66
2021/03/07 07:46:27;;;;;;;5.07;1.25;;;;;;;31.79;27.24;98958.78;5032938;28;20703;-65
2021/03/07 07:48:54;;;;;;;6.50;1.58;;;;;;;31.24;26.92;98962.47;5032849;28;20662;-63
2021/03/07 07:51:39;;;;;;;3.78;0.90;;;;;;;33.33;25.39;98957.22;5033019;28;20705;-59
2021/03/07 07:54:06;;;;;;;4.85;1.38;;;;;;;32.74;25.42;98958.38;5033130;28;20192;-62
2021/03/07 07:56:37;;;;;;;2.42;1.40;;;;;;;31.74;26.49;98956.69;5032827;28;20224;-62
2021/03/07 07:59:04;;;;;;;3.22;1.23;;;;;;;31.26;27.68;98964.97;5033024;28;20694;-63
2021/03/07 08:01:54;;;;;;;2.08;1.20;;;;;;;33.37;24.56;98953.03;5033582;28;20210;-63
2021/03/07 08:04:35;;;;;;;2.67;1.20;;;;;;;32.79;25.45;98956.69;5032777;28;20582;-65
2021/03/07 08:07:02;;;;;;;2.58;1.30;;;;;;;31.64;26.86;98956.28;5032923;28;20216;-63
2021/03/07 08:09:44;;;;;;;4.35;1.45;;;;;;;31.68;27.42;98944.84;5040495;22;20228;-63
2021/03/07 08:12:47;;;;;;;2.95;1.27;;;;;;;33.53;25.52;98951.66;5033014;28;20220;-66
2021/03/07 08:15:48;;;;;;;3.45;1.13;;;;;;;33.44;25.26;98949.44;5032988;28;20242;-67
2021/03/07 08:18:18;;;;;;;1.77;1.20;;;;;;;31.95;27.21;98950.22;5032744;28;20240;-64
2021/03/07 08:21:01;;;;;;;3.25;1.15;;;;;;;31.33;28.01;98945.03;5033055;28;20291;-65
2021/03/07 08:23:27;;;;;;;3.92;1.33;;;;;;;33.15;24.86;98946.28;5032950;28;20192;-66
2021/03/07 08:25:58;;;;;;;4.85;1.48;;;;;;;32.98;26.43;98948.69;5033368;28;20603;-67
2021/03/07 08:28:47;;;;;;;5.35;1.40;;;;;;;31.72;27.61;98939.84;5033047;28;20246;-67
2021/03/07 08:31:36;;;;;;;5.90;1.38;;;;;;;31.22;27.86;98929.44;5032854;28;20212;-67
2021/03/07 08:34:23;;;;;;;4.22;1.38;;;;;;;32.64;26.23;98931.75;5032696;28;20224;-65
2021/03/07 08:37:00;;;;;;;5.45;1.25;;;;;;;33.24;25.10;98933.31;5032732;28;20224;-64
2021/03/07 08:39:28;;;;;;;9.30;1.70;;;;;;;33.48;25.63;98931.69;5032527;28;20200;-66
2021/03/07 08:42:02;;;;;;;10.65;2.20;;;;;;;34.04;25.35;98932.63;5032748;28;20204;-63
2021/03/07 08:44:30;;;;;;;12.10;1.77;;;;;;;33.66;26.01;98937.16;5031986;28;20200;-62
2021/03/07 08:46:56;;;;;;;8.00;1.75;;;;;;;32.34;27.32;98921.44;5032162;28;20235;-60
2021/03/07 08:49:26;;;;;;;9.80;1.52;;;;;;;31.43;27.70;98914.91;5032275;28;20203;-65
2021/03/07 08:51:58;;;;;;;9.30;1.70;;;;;;;32.52;26.36;98914.50;5031786;28;20259;-58
2021/03/07 08:54:29;;;;;;;10.88;2.20;;;;;;;33.70;24.82;98910.44;5031635;28;20223;-64
2021/03/07 08:56:55;;;;;;;9.27;1.50;;;;;;;32.23;27.52;98916.72;5031764;28;20188;-61
2021/03/07 08:59:26;;;;;;;5.28;1.52;;;;;;;31.68;27.30;98901.59;5032100;28;20310;-58
2021/03/07 09:01:53;;;;;;;10.15;1.92;;;;;;;32.33;26.82;98908.97;5031841;28;20282;-66
2021/03/07 09:04:19;;;;;;;17.80;2.15;;;;;;;32.91;26.49;98908.09;5031686;28;20251;-65
2021/03/07 09:06:47;;;;;;;12.35;2.00;;;;;;;31.96;26.34;98908.63;5032304;28;20255;-67
2021/03/07 09:09:16;;;;;;;7.53;2.22;;;;;;;31.66;26.72;98905.53;5032341;28;20303;-66
2021/03/07 09:11:50;;;;;;;7.90;1.85;;;;;;;31.43;27.70;98898.69;5031593;28;20228;-63
2021/03/07 09:14:17;;;;;;;10.65;1.88;;;;;;;30.86;28.69;98895.50;5032102;28;20609;-66
2021/03/07 09:16:48;;;;;;;5.47;1.50;;;;;;;31.73;27.20;98899.09;5032331;28;20639;-66
2021/03/07 09:19:23;;;;;;;7.65;1.42;;;;;;;32.80;26.63;98893.34;5032192;28;20203;-67
2021/03/07 09:22:16;;;;;;;6.00;1.67;;;;;;;31.88;27.10;98895.34;5032726;28;20231;-67
2021/03/07 09:24:58;;;;;;;4.68;1.52;;;;;;;31.09;28.65;98886.19;5032610;28;20256;-62
2021/03/07 09:27:26;;;;;;;7.00;1.55;;;;;;;31.38;28.86;98879.56;5032035;28;20231;-57
2021/03/07 09:29:55;;;;;;;10.90;2.30;;;;;;;33.41;26.88;98874.81;5032543;28;20207;-66
2021/03/07 09:32:25;;;;;;;17.73;2.70;;;;;;;32.38;27.57;98883.97;5031558;28;20224;-63
2021/03/07 09:34:52;;;;;;;15.90;2.65;;;;;;;31.34;28.69;98872.91;5031272;28;20259;-65
2021/03/07 09:37:19;;;;;;;9.93;1.98;;;;;;;31.44;28.52;98883.28;5031781;28;20204;-65
2021/03/07 09:39:46;;;;;;;9.35;1.83;;;;;;;33.37;26.00;98870.88;5031723;28;20757;-64
2021/03/07 09:42:12;;;;;;;32.05;2.92;;;;;;;32.28;25.54;98870.91;5031976;28;20275;-58
2021/03/07 09:44:40;;;;;;;9.52;2.38;;;;;;;31.45;26.77;98874.16;5033209;28;20268;-65
2021/03/07 09:47:06;;;;;;;12.57;2.83;;;;;;;31.11;27.60;98873.31;5037818;28;20324;-65
2021/03/07 09:49:33;;;;;;;10.57;2.10;;;;;;;33.62;23.50;98870.84;5037932;28;20242;-65
2021/03/07 09:51:59;;;;;;;9.20;1.92;;;;;;;32.26;26.15;98867.59;5036560;28;20311;-66
2021/03/07 09:54:26;;;;;;;6.80;1.73;;;;;;;31.64;26.21;98867.94;5036272;28;20243;-66
2021/03/07 09:56:55;;;;;;;6.00;1.63;;;;;;;31.16;26.37;98862.75;5031556;28;20215;-66
2021/03/07 09:59:24;;;;;;;6.07;1.77;;;;;;;33.30;24.52;98867.41;5031563;28;20184;-66
2021/03/07 10:01:52;;;;;;;3.85;1.55;;;;;;;32.25;25.59;98869.44;5031752;28;20208;-65
2021/03/07 10:04:25;;;;;;;11.70;2.28;;;;;;;31.57;25.97;98860.88;5030997;28;20222;-65
2021/03/07 10:06:51;;;;;;;9.80;2.10;;;;;;;32.28;24.81;98857.38;5031485;28;20323;-66
2021/03/07 10:09:17;;;;;;;4.80;1.73;;;;;;;31.04;27.31;98856.28;5031433;28;20230;-65
2021/03/07 10:11:58;;;;;;;12.98;2.33;;;;;;;30.82;27.03;98853.72;5035380;28;20666;-63
2021/03/07 10:14:26;;;;;;;19.58;2.30;;;;;;;31.11;26.73;98844.44;5035632;28;20243;-66
2021/03/07 10:16:53;;;;;;;6.75;1.83;;;;;;;31.69;25.54;98843.81;5035294;28;20258;-67
2021/03/07 10:19:20;;;;;;;5.53;1.80;;;;;;;30.77;26.75;98842.72;5034915;28;20287;-67
2021/03/07 10:21:47;;;;;;;8.65;2.17;;;;;;;30.02;27.45;98848.03;5035214;28;20757;-66
2021/03/07 10:24:16;;;;;;;5.07;1.88;;;;;;;32.00;25.27;98836.84;5035131;28;20204;-67
2021/03/07 10:26:43;;;;;;;6.88;2.08;;;;;;;30.95;26.18;98831.34;5035157;28;20307;-64
2021/03/07 10:29:26;;;;;;;8.48;1.90;;;;;;;30.42;26.63;98827.47;5034941;28;20659;-66
2021/03/07 10:32:03;;;;;;;7.45;2.05;;;;;;;29.79;26.87;98829.47;5034818;28;20212;-60
2021/03/07 10:34:31;;;;;;;4.47;1.75;;;;;;;29.38;28.69;98824.81;5034977;28;20287;-64
2021/03/07 10:36:57;;;;;;;5.10;1.85;;;;;;;30.77;27.51;98821.13;5034806;28;20208;-64
2021/03/07 10:39:23;;;;;;;3.53;1.20;;;;;;;31.85;25.92;98825.44;5034119;28;20366;-64
2021/03/07 10:41:49;;;;;;;5.95;1.55;;;;;;;32.72;25.35;98825.09;5034396;28;20204;-65
2021/03/07 10:44:24;;;;;;;4.07;1.45;;;;;;;32.97;25.44;98825.09;5034430;28;20598;-66
2021/03/07 10:46:50;;;;;;;3.38;1.70;;;;;;;32.70;25.04;98827.19;5035155;28;20193;-67
2021/03/07 10:49:19;;;;;;;8.88;1.48;;;;;;;31.82;26.23;98824.00;5034395;28;20670;-65
2021/03/07 10:51:45;;;;;;;5.53;1.60;;;;;;;31.27;27.69;98826.97;5034505;28;20259;-66
2021/03/07 10:54:11;;;;;;;5.72;1.63;;;;;;;32.19;26.46;98823.47;5034666;28;20227;-64
2021/03/07 10:56:40;;;;;;;3.75;1.50;;;;;;;32.99;25.60;98821.16;5034944;28;20323;-63
2021/03/07 10:59:06;;;;;;;1.88;1.48;;;;;;;33.21;25.42;98817.22;5034021;28;20257;-66
2021/03/07 11:01:33;;;;;;;6.30;1.70;;;;;;;32.03;26.25;98812.06;5034758;28;20211;-66
2021/03/07 11:04:00;;;;;;;7.10;1.33;;;;;;;31.44;27.28;98816.56;5033967;28;20234;-64
2021/03/07 11:06:26;;;;;;;4.68;1.45;;;;;;;32.09;26.51;98816.66;5034537;28;20729;-64
2021/03/07 11:08:53;;;;;;;6.82;1.58;;;;;;;33.06;26.21;98804.84;5034218;28;20303;-64
2021/03/07 11:11:19;;;;;;;4.05;1.10;;;;;;;32.59;25.49;98804.31;5033987;28;20250;-64
2021/03/07 11:13:46;;;;;;;2.25;1.10;;;;;;;31.34;27.95;98808.06;5034698;28;20211;-64
2021/03/07 11:16:12;;;;;;;5.13;1.60;;;;;;;30.96;28.24;98806.00;5033729;28;20254;-68
2021/03/07 11:18:39;;;;;;;2.97;1.00;;;;;;;31.93;27.12;98800.88;5034266;28;20210;-65
2021/03/07 11:21:06;;;;;;;6.50;1.25;;;;;;;32.60;26.68;98808.69;5033484;28;20599;-68
2021/03/07 11:23:34;;;;;;;5.65;1.75;;;;;;;32.02;27.69;98813.09;5034288;28;20279;-65
2021/03/07 11:26:00;;;;;;;7.57;1.40;;;;;;;31.12;28.15;98810.97;5033514;28;20709;-63
2021/03/07 11:28:26;;;;;;;3.55;0.95;;;;;;;31.69;27.71;98805.97;5034519;28;20210;-62
2021/03/07 11:30:52;;;;;;;5.35;1.35;;;;;;;32.72;26.04;98811.53;5034028;28;20258;-63
2021/03/07 11:33:19;;;;;;;4.88;1.10;;;;;;;32.85;26.17;98794.38;5033845;28;20291;-60
2021/03/07 11:35:46;;;;;;;6.70;1.48;;;;;;;31.85;27.40;98793.81;5034378;28;20223;-62
2021/03/07 11:38:12;;;;;;;6.70;1.20;;;;;;;31.40;28.06;98788.31;5033499;28;20250;-61
2021/03/07 11:40:38;;;;;;;5.47;1.60;;;;;;;32.34;24.42;98786.13;5034352;28;20311;-62
2021/03/07 11:43:04;;;;;;;6.50;2.10;;;;;;;33.32;24.38;98797.53;5038864;28;20647;-63